sensor_id;sensor_type;location;lat;lon;timestamp;pressure;altitude;pressure_sealevel;temperature;humidity
78890;BME280;68279;48.964;14.502;2023-06-22T00:02:17;97372.03;;;15.05;100.00
78890;BME280;68279;48.964;14.502;2023-06-22T00:04:43;97371.72;;;14.93;100.00
78890;BME280;68279;48.964;14.502;2023-06-22T00:07:09;97366.72;;;15.00;100.00
78890;BME280;68279;48.964;14.502;2023-06-22T00:09:34;97359.44;;;15.00;100.00
78890;BME280;68279;48.964;14.502;2023-06-22T00:12:00;97354.97;;;14.96;100.00
78890;BME280;68279;48.964;14.502;2023-06-22T00:14:26;97356.75;;;15.00;100.00
78890;BME280;68279;48.964;14.502;2023-06-22T00:16:53;97355.66;;;15.15;100.00
78890;BME280;68279;48.964;14.502;2023-06-22T00:19:23;97350.66;;;15.22;100.00
78890;BME280;68279;48.964;14.502;2023-06-22T00:21:50;97378.41;;;14.95;100.00
78890;BME280;68279;48.964;14.502;2023-06-22T00:24:20;97381.75;;;14.46;100.00
78890;BME280;68279;48.964;14.502;2023-06-22T00:26:46;97378.34;;;14.40;100.00
78890;BME280;68279;48.964;14.502;2023-06-22T00:29:12;97374.63;;;14.36;100.00
78890;BME280;68279;48.964;14.502;2023-06-22T00:31:38;97374.81;;;14.40;100.00
78890;BME280;68279;48.964;14.502;2023-06-22T00:34:04;97377.41;;;14.31;100.00
78890;BME280;68279;48.964;14.502;2023-06-22T00:36:34;97368.38;;;14.41;100.00
78890;BME280;68279;48.964;14.502;2023-06-22T00:39:00;97366.75;;;14.40;100.00
78890;BME280;68279;48.964;14.502;2023-06-22T00:41:26;97362.53;;;14.66;100.00
78890;BME280;68279;48.964;14.502;2023-06-22T00:43:54;97368.44;;;14.68;100.00
78890;BME280;68279;48.964;14.502;2023-06-22T00:46:21;97366.69;;;14.45;100.00
78890;BME280;68279;48.964;14.502;2023-06-22T00:48:50;97362.25;;;14.35;100.00
78890;BME280;68279;48.964;14.502;2023-06-22T00:51:17;97364.41;;;14.20;100.00
78890;BME280;68279;48.964;14.502;2023-06-22T00:53:42;97354.84;;;14.13;100.00
78890;BME280;68279;48.964;14.502;2023-06-22T00:56:08;97356.53;;;14.09;100.00
78890;BME280;68279;48.964;14.502;2023-06-22T00:58:36;97363.00;;;14.08;100.00
78890;BME280;68279;48.964;14.502;2023-06-22T01:01:01;97370.59;;;14.20;100.00
78890;BME280;68279;48.964;14.502;2023-06-22T01:03:27;97367.66;;;14.03;100.00
78890;BME280;68279;48.964;14.502;2023-06-22T01:05:58;97363.66;;;14.00;100.00
78890;BME280;68279;48.964;14.502;2023-06-22T01:11:30;97359.75;;;13.93;100.00
78890;BME280;68279;48.964;14.502;2023-06-22T01:14:15;97346.66;;;13.86;100.00
78890;BME280;68279;48.964;14.502;2023-06-22T01:16:44;97343.47;;;13.84;100.00
78890;BME280;68279;48.964;14.502;2023-06-22T01:19:25;97340.78;;;13.84;100.00
78890;BME280;68279;48.964;14.502;2023-06-22T01:21:55;97347.63;;;13.76;100.00
78890;BME280;68279;48.964;14.502;2023-06-22T01:24:26;97347.88;;;13.80;100.00
78890;BME280;68279;48.964;14.502;2023-06-22T01:29:57;97349.31;;;13.72;100.00
78890;BME280;68279;48.964;14.502;2023-06-22T01:32:30;97341.31;;;13.67;100.00
78890;BME280;68279;48.964;14.502;2023-06-22T01:34:58;97335.75;;;13.64;100.00
78890;BME280;68279;48.964;14.502;2023-06-22T01:37:27;97325.78;;;13.64;100.00
78890;BME280;68279;48.964;14.502;2023-06-22T01:39:53;97324.84;;;13.74;100.00
78890;BME280;68279;48.964;14.502;2023-06-22T01:42:23;97327.94;;;13.81;100.00
78890;BME280;68279;48.964;14.502;2023-06-22T01:44:52;97328.91;;;13.71;100.00
78890;BME280;68279;48.964;14.502;2023-06-22T01:47:17;97332.09;;;13.73;100.00
78890;BME280;68279;48.964;14.502;2023-06-22T01:49:43;97335.88;;;13.72;100.00
78890;BME280;68279;48.964;14.502;2023-06-22T01:52:09;97335.38;;;13.70;100.00
78890;BME280;68279;48.964;14.502;2023-06-22T01:54:34;97344.22;;;13.89;100.00
78890;BME280;68279;48.964;14.502;2023-06-22T01:57:00;97347.34;;;13.78;100.00
78890;BME280;68279;48.964;14.502;2023-06-22T01:59:32;97339.38;;;13.73;100.00
78890;BME280;68279;48.964;14.502;2023-06-22T02:02:06;97345.91;;;13.67;100.00
78890;BME280;68279;48.964;14.502;2023-06-22T02:04:44;97330.00;;;13.70;100.00
78890;BME280;68279;48.964;14.502;2023-06-22T02:07:14;97333.31;;;13.81;100.00
78890;BME280;68279;48.964;14.502;2023-06-22T02:09:44;97331.06;;;13.88;100.00
78890;BME280;68279;48.964;14.502;2023-06-22T02:12:12;97326.00;;;13.68;100.00
78890;BME280;68279;48.964;14.502;2023-06-22T02:14:39;97327.03;;;13.53;100.00
78890;BME280;68279;48.964;14.502;2023-06-22T02:17:05;97338.00;;;13.38;100.00
78890;BME280;68279;48.964;14.502;2023-06-22T02:19:36;97335.22;;;13.43;100.00
78890;BME280;68279;48.964;14.502;2023-06-22T02:22:02;97336.59;;;13.59;100.00
78890;BME280;68279;48.964;14.502;2023-06-22T02:24:28;97323.97;;;13.59;100.00
78890;BME280;68279;48.964;14.502;2023-06-22T02:26:57;97327.25;;;13.56;100.00
78890;BME280;68279;48.964;14.502;2023-06-22T02:29:23;97321.72;;;13.48;100.00
78890;BME280;68279;48.964;14.502;2023-06-22T02:31:49;97320.50;;;13.40;100.00
78890;BME280;68279;48.964;14.502;2023-06-22T02:34:15;97317.09;;;13.35;100.00
78890;BME280;68279;48.964;14.502;2023-06-22T02:36:46;97303.66;;;13.53;100.00
78890;BME280;68279;48.964;14.502;2023-06-22T02:39:22;97308.88;;;13.64;100.00
78890;BME280;68279;48.964;14.502;2023-06-22T02:41:49;97317.59;;;13.55;100.00
78890;BME280;68279;48.964;14.502;2023-06-22T02:44:15;97322.38;;;13.21;100.00
78890;BME280;68279;48.964;14.502;2023-06-22T02:46:41;97309.06;;;13.11;100.00
78890;BME280;68279;48.964;14.502;2023-06-22T02:49:06;97303.69;;;13.11;100.00
78890;BME280;68279;48.964;14.502;2023-06-22T02:51:35;97304.41;;;13.16;100.00
78890;BME280;68279;48.964;14.502;2023-06-22T02:54:01;97302.31;;;13.13;100.00
78890;BME280;68279;48.964;14.502;2023-06-22T02:56:28;97307.38;;;13.15;100.00
78890;BME280;68279;48.964;14.502;2023-06-22T02:58:55;97307.50;;;13.28;100.00
78890;BME280;68279;48.964;14.502;2023-06-22T03:01:27;97307.66;;;13.37;100.00
78890;BME280;68279;48.964;14.502;2023-06-22T03:03:53;97312.06;;;13.28;100.00
78890;BME280;68279;48.964;14.502;2023-06-22T03:06:21;97311.50;;;13.31;100.00
78890;BME280;68279;48.964;14.502;2023-06-22T03:08:50;97311.63;;;13.40;100.00
78890;BME280;68279;48.964;14.502;2023-06-22T03:11:16;97313.31;;;13.36;100.00
78890;BME280;68279;48.964;14.502;2023-06-22T03:13:41;97304.16;;;13.37;100.00
78890;BME280;68279;48.964;14.502;2023-06-22T03:16:08;97317.91;;;13.35;100.00
78890;BME280;68279;48.964;14.502;2023-06-22T03:18:34;97324.22;;;13.44;100.00
78890;BME280;68279;48.964;14.502;2023-06-22T03:20:59;97332.97;;;13.50;100.00
78890;BME280;68279;48.964;14.502;2023-06-22T03:23:27;97332.41;;;13.53;100.00
78890;BME280;68279;48.964;14.502;2023-06-22T03:25:53;97329.72;;;13.53;100.00
78890;BME280;68279;48.964;14.502;2023-06-22T03:28:21;97335.09;;;13.53;100.00
78890;BME280;68279;48.964;14.502;2023-06-22T03:30:47;97338.44;;;13.64;100.00
78890;BME280;68279;48.964;14.502;2023-06-22T03:33:13;97348.38;;;13.63;100.00
78890;BME280;68279;48.964;14.502;2023-06-22T03:35:38;97348.69;;;13.62;100.00
78890;BME280;68279;48.964;14.502;2023-06-22T03:38:04;97341.97;;;13.59;100.00
78890;BME280;68279;48.964;14.502;2023-06-22T03:40:29;97345.03;;;13.71;100.00
78890;BME280;68279;48.964;14.502;2023-06-22T03:42:55;97342.47;;;13.80;100.00
78890;BME280;68279;48.964;14.502;2023-06-22T03:45:21;97342.25;;;13.76;100.00
78890;BME280;68279;48.964;14.502;2023-06-22T03:47:46;97339.00;;;13.79;100.00
78890;BME280;68279;48.964;14.502;2023-06-22T03:50:12;97345.97;;;13.80;100.00
78890;BME280;68279;48.964;14.502;2023-06-22T03:52:39;97344.50;;;13.88;100.00
78890;BME280;68279;48.964;14.502;2023-06-22T03:55:05;97346.53;;;13.96;100.00
78890;BME280;68279;48.964;14.502;2023-06-22T03:57:32;97341.28;;;14.05;100.00
78890;BME280;68279;48.964;14.502;2023-06-22T03:59:58;97348.53;;;14.04;100.00
78890;BME280;68279;48.964;14.502;2023-06-22T04:02:24;97338.16;;;13.98;100.00
78890;BME280;68279;48.964;14.502;2023-06-22T04:04:50;97325.34;;;14.08;100.00
78890;BME280;68279;48.964;14.502;2023-06-22T04:07:16;97326.69;;;14.25;100.00
78890;BME280;68279;48.964;14.502;2023-06-22T04:09:43;97325.69;;;14.34;100.00
78890;BME280;68279;48.964;14.502;2023-06-22T04:12:09;97328.50;;;14.43;100.00
78890;BME280;68279;48.964;14.502;2023-06-22T04:14:34;97323.03;;;14.48;100.00
78890;BME280;68279;48.964;14.502;2023-06-22T04:17:01;97318.25;;;14.45;100.00
78890;BME280;68279;48.964;14.502;2023-06-22T04:19:27;97315.28;;;14.60;100.00
78890;BME280;68279;48.964;14.502;2023-06-22T04:21:52;97319.78;;;14.79;100.00
78890;BME280;68279;48.964;14.502;2023-06-22T04:24:18;97319.47;;;14.94;100.00
78890;BME280;68279;48.964;14.502;2023-06-22T04:26:43;97318.16;;;15.05;100.00
78890;BME280;68279;48.964;14.502;2023-06-22T04:29:11;97313.94;;;15.13;100.00
78890;BME280;68279;48.964;14.502;2023-06-22T04:31:37;97315.31;;;15.24;100.00
78890;BME280;68279;48.964;14.502;2023-06-22T04:34:04;97316.38;;;15.37;100.00
78890;BME280;68279;48.964;14.502;2023-06-22T04:36:39;97316.66;;;15.49;100.00
78890;BME280;68279;48.964;14.502;2023-06-22T04:39:10;97315.03;;;15.62;100.00
78890;BME280;68279;48.964;14.502;2023-06-22T04:41:39;97317.38;;;15.77;100.00
78890;BME280;68279;48.964;14.502;2023-06-22T04:44:15;97313.47;;;15.83;100.00
78890;BME280;68279;48.964;14.502;2023-06-22T04:46:50;97306.03;;;15.89;100.00
78890;BME280;68279;48.964;14.502;2023-06-22T04:49:19;97316.44;;;16.04;100.00
78890;BME280;68279;48.964;14.502;2023-06-22T04:51:45;97314.91;;;16.11;100.00
78890;BME280;68279;48.964;14.502;2023-06-22T04:54:11;97309.25;;;16.22;100.00
78890;BME280;68279;48.964;14.502;2023-06-22T04:56:37;97309.91;;;16.27;100.00
78890;BME280;68279;48.964;14.502;2023-06-22T04:59:03;97305.06;;;16.15;100.00
78890;BME280;68279;48.964;14.502;2023-06-22T05:01:29;97302.75;;;16.23;100.00
78890;BME280;68279;48.964;14.502;2023-06-22T05:03:57;97302.53;;;16.10;100.00
78890;BME280;68279;48.964;14.502;2023-06-22T05:06:26;97305.88;;;16.16;100.00
78890;BME280;68279;48.964;14.502;2023-06-22T05:08:56;97296.06;;;16.20;100.00
78890;BME280;68279;48.964;14.502;2023-06-22T05:11:26;97298.44;;;16.53;100.00
78890;BME280;68279;48.964;14.502;2023-06-22T05:13:52;97301.97;;;16.62;100.00
78890;BME280;68279;48.964;14.502;2023-06-22T05:16:17;97304.44;;;16.72;100.00
78890;BME280;68279;48.964;14.502;2023-06-22T05:18:51;97300.03;;;16.93;100.00
78890;BME280;68279;48.964;14.502;2023-06-22T05:21:17;97301.19;;;17.10;98.79
78890;BME280;68279;48.964;14.502;2023-06-22T05:23:43;97309.31;;;17.27;98.50
78890;BME280;68279;48.964;14.502;2023-06-22T05:26:09;97311.88;;;17.32;99.19
78890;BME280;68279;48.964;14.502;2023-06-22T05:28:35;97305.03;;;17.26;97.23
78890;BME280;68279;48.964;14.502;2023-06-22T05:31:01;97303.13;;;17.26;96.13
78890;BME280;68279;48.964;14.502;2023-06-22T05:33:26;97314.56;;;17.32;95.52
78890;BME280;68279;48.964;14.502;2023-06-22T05:35:52;97317.28;;;17.49;94.83
78890;BME280;68279;48.964;14.502;2023-06-22T05:38:17;97312.19;;;17.48;94.26
78890;BME280;68279;48.964;14.502;2023-06-22T05:40:43;97317.59;;;17.48;93.12
78890;BME280;68279;48.964;14.502;2023-06-22T05:43:09;97323.50;;;17.67;92.79
78890;BME280;68279;48.964;14.502;2023-06-22T05:45:34;97321.91;;;17.75;92.79
78890;BME280;68279;48.964;14.502;2023-06-22T05:48:00;97330.50;;;18.03;90.62
78890;BME280;68279;48.964;14.502;2023-06-22T05:50:26;97334.25;;;18.28;89.95
78890;BME280;68279;48.964;14.502;2023-06-22T05:52:52;97333.94;;;18.38;89.59
78890;BME280;68279;48.964;14.502;2023-06-22T05:55:18;97327.84;;;18.50;89.92
78890;BME280;68279;48.964;14.502;2023-06-22T05:57:44;97327.09;;;18.79;88.43
78890;BME280;68279;48.964;14.502;2023-06-22T06:00:10;97329.22;;;18.73;85.79
78890;BME280;68279;48.964;14.502;2023-06-22T06:02:37;97335.84;;;18.84;84.96
78890;BME280;68279;48.964;14.502;2023-06-22T06:05:11;97321.16;;;19.15;85.41
78890;BME280;68279;48.964;14.502;2023-06-22T06:07:37;97313.03;;;19.44;85.08
78890;BME280;68279;48.964;14.502;2023-06-22T06:10:03;97315.59;;;19.41;85.90
78890;BME280;68279;48.964;14.502;2023-06-22T06:12:30;97321.03;;;19.83;87.42
78890;BME280;68279;48.964;14.502;2023-06-22T06:14:57;97320.66;;;19.72;88.23
78890;BME280;68279;48.964;14.502;2023-06-22T06:17:29;97319.66;;;20.09;81.61
78890;BME280;68279;48.964;14.502;2023-06-22T06:19:55;97315.88;;;20.35;83.84
78890;BME280;68279;48.964;14.502;2023-06-22T06:22:20;97319.66;;;20.09;81.59
78890;BME280;68279;48.964;14.502;2023-06-22T06:24:47;97323.19;;;20.55;81.90
78890;BME280;68279;48.964;14.502;2023-06-22T06:27:13;97314.94;;;21.01;78.97
78890;BME280;68279;48.964;14.502;2023-06-22T06:29:39;97319.13;;;21.47;77.14
78890;BME280;68279;48.964;14.502;2023-06-22T06:32:07;97319.50;;;20.97;77.73
78890;BME280;68279;48.964;14.502;2023-06-22T06:34:32;97330.13;;;20.89;78.85
78890;BME280;68279;48.964;14.502;2023-06-22T06:36:58;97320.38;;;21.01;80.37
78890;BME280;68279;48.964;14.502;2023-06-22T06:39:24;97326.16;;;21.48;77.58
78890;BME280;68279;48.964;14.502;2023-06-22T06:41:50;97322.84;;;21.42;78.83
78890;BME280;68279;48.964;14.502;2023-06-22T06:44:15;97322.94;;;21.58;81.66
78890;BME280;68279;48.964;14.502;2023-06-22T06:46:46;97332.34;;;21.89;77.20
78890;BME280;68279;48.964;14.502;2023-06-22T06:49:11;97330.91;;;22.19;77.78
78890;BME280;68279;48.964;14.502;2023-06-22T06:51:37;97322.31;;;22.33;78.04
78890;BME280;68279;48.964;14.502;2023-06-22T06:54:02;97323.56;;;22.36;77.46
78890;BME280;68279;48.964;14.502;2023-06-22T06:56:28;97319.00;;;22.55;75.16
78890;BME280;68279;48.964;14.502;2023-06-22T06:58:55;97313.63;;;22.27;77.31
78890;BME280;68279;48.964;14.502;2023-06-22T07:01:20;97311.34;;;22.45;75.57
78890;BME280;68279;48.964;14.502;2023-06-22T07:03:46;97308.09;;;22.40;77.55
78890;BME280;68279;48.964;14.502;2023-06-22T07:06:13;97310.72;;;22.68;78.94
78890;BME280;68279;48.964;14.502;2023-06-22T07:08:38;97300.94;;;23.14;76.67
78890;BME280;68279;48.964;14.502;2023-06-22T07:11:05;97304.75;;;23.09;76.69
78890;BME280;68279;48.964;14.502;2023-06-22T07:13:31;97300.19;;;22.82;75.88
78890;BME280;68279;48.964;14.502;2023-06-22T07:15:56;97311.09;;;22.98;78.86
78890;BME280;68279;48.964;14.502;2023-06-22T07:18:23;97307.75;;;23.59;78.13
78890;BME280;68279;48.964;14.502;2023-06-22T07:20:49;97315.66;;;23.60;74.87
78890;BME280;68279;48.964;14.502;2023-06-22T07:23:16;97301.78;;;23.69;76.45
78890;BME280;68279;48.964;14.502;2023-06-22T07:25:42;97305.50;;;23.99;73.69
78890;BME280;68279;48.964;14.502;2023-06-22T07:28:07;97294.16;;;23.97;73.08
78890;BME280;68279;48.964;14.502;2023-06-22T07:30:34;97302.25;;;24.33;75.25
78890;BME280;68279;48.964;14.502;2023-06-22T07:33:00;97303.19;;;24.01;73.25
78890;BME280;68279;48.964;14.502;2023-06-22T07:35:30;97296.00;;;23.93;74.08
78890;BME280;68279;48.964;14.502;2023-06-22T07:37:57;97296.66;;;24.06;74.12
78890;BME280;68279;48.964;14.502;2023-06-22T07:40:22;97290.88;;;24.30;75.52
78890;BME280;68279;48.964;14.502;2023-06-22T07:42:48;97282.16;;;24.44;72.88
78890;BME280;68279;48.964;14.502;2023-06-22T07:45:17;97280.91;;;24.65;76.11
78890;BME280;68279;48.964;14.502;2023-06-22T07:47:42;97278.91;;;24.62;73.57
78890;BME280;68279;48.964;14.502;2023-06-22T07:50:08;97272.41;;;24.47;75.28
78890;BME280;68279;48.964;14.502;2023-06-22T07:52:34;97272.69;;;24.88;71.57
78890;BME280;68279;48.964;14.502;2023-06-22T07:55:00;97263.69;;;25.10;72.13
78890;BME280;68279;48.964;14.502;2023-06-22T07:57:26;97255.19;;;24.92;71.15
78890;BME280;68279;48.964;14.502;2023-06-22T07:59:58;97264.16;;;24.66;73.30
78890;BME280;68279;48.964;14.502;2023-06-22T08:02:24;97266.88;;;25.16;73.70
78890;BME280;68279;48.964;14.502;2023-06-22T08:04:50;97259.41;;;25.12;71.56
78890;BME280;68279;48.964;14.502;2023-06-22T08:07:15;97269.19;;;25.13;73.91
78890;BME280;68279;48.964;14.502;2023-06-22T08:09:46;97266.97;;;25.23;70.27
78890;BME280;68279;48.964;14.502;2023-06-22T08:12:13;97267.06;;;25.60;71.54
78890;BME280;68279;48.964;14.502;2023-06-22T08:14:39;97275.66;;;25.58;71.30
78890;BME280;68279;48.964;14.502;2023-06-22T08:17:04;97271.38;;;25.61;69.73
78890;BME280;68279;48.964;14.502;2023-06-22T08:19:30;97270.31;;;25.99;71.38
78890;BME280;68279;48.964;14.502;2023-06-22T08:22:00;97271.00;;;26.30;70.67
78890;BME280;68279;48.964;14.502;2023-06-22T08:24:26;97260.25;;;26.14;68.51
78890;BME280;68279;48.964;14.502;2023-06-22T08:26:56;97257.56;;;25.80;67.00
78890;BME280;68279;48.964;14.502;2023-06-22T08:29:22;97257.34;;;25.96;70.08
78890;BME280;68279;48.964;14.502;2023-06-22T08:31:47;97263.44;;;26.16;66.59
78890;BME280;68279;48.964;14.502;2023-06-22T08:34:13;97258.06;;;26.26;66.50
78890;BME280;68279;48.964;14.502;2023-06-22T08:36:39;97259.84;;;26.12;67.00
78890;BME280;68279;48.964;14.502;2023-06-22T08:39:07;97252.84;;;26.59;65.70
78890;BME280;68279;48.964;14.502;2023-06-22T08:41:33;97248.72;;;26.35;63.28
78890;BME280;68279;48.964;14.502;2023-06-22T08:43:59;97262.56;;;26.49;67.11
78890;BME280;68279;48.964;14.502;2023-06-22T08:46:31;97257.31;;;26.74;63.42
78890;BME280;68279;48.964;14.502;2023-06-22T08:48:59;97257.75;;;26.83;62.12
78890;BME280;68279;48.964;14.502;2023-06-22T08:51:26;97249.06;;;26.74;63.84
78890;BME280;68279;48.964;14.502;2023-06-22T08:53:53;97247.94;;;26.82;62.43
78890;BME280;68279;48.964;14.502;2023-06-22T08:56:18;97234.22;;;26.82;63.12
78890;BME280;68279;48.964;14.502;2023-06-22T08:58:44;97229.78;;;26.60;64.39
78890;BME280;68279;48.964;14.502;2023-06-22T09:01:10;97231.75;;;26.66;64.59
78890;BME280;68279;48.964;14.502;2023-06-22T09:03:35;97223.75;;;26.98;68.08
78890;BME280;68279;48.964;14.502;2023-06-22T09:06:03;97220.41;;;27.23;61.51
78890;BME280;68279;48.964;14.502;2023-06-22T09:08:28;97219.56;;;27.19;65.79
78890;BME280;68279;48.964;14.502;2023-06-22T09:10:55;97217.94;;;27.03;63.71
78890;BME280;68279;48.964;14.502;2023-06-22T09:13:21;97221.28;;;27.45;61.30
78890;BME280;68279;48.964;14.502;2023-06-22T09:15:48;97217.66;;;27.23;63.87
78890;BME280;68279;48.964;14.502;2023-06-22T09:18:14;97224.38;;;27.32;63.86
78890;BME280;68279;48.964;14.502;2023-06-22T09:20:40;97223.47;;;28.12;64.60
78890;BME280;68279;48.964;14.502;2023-06-22T09:23:06;97230.16;;;28.14;60.55
78890;BME280;68279;48.964;14.502;2023-06-22T09:25:31;97231.31;;;28.06;64.05
78890;BME280;68279;48.964;14.502;2023-06-22T09:27:57;97222.69;;;28.15;66.04
78890;BME280;68279;48.964;14.502;2023-06-22T09:30:23;97220.72;;;28.26;60.37
78890;BME280;68279;48.964;14.502;2023-06-22T09:32:52;97220.31;;;28.24;60.31
78890;BME280;68279;48.964;14.502;2023-06-22T09:35:18;97220.34;;;28.20;64.07
78890;BME280;68279;48.964;14.502;2023-06-22T09:37:43;97214.75;;;27.81;63.84
78890;BME280;68279;48.964;14.502;2023-06-22T09:40:10;97216.00;;;28.16;57.52
78890;BME280;68279;48.964;14.502;2023-06-22T09:42:36;97210.16;;;28.57;59.38
78890;BME280;68279;48.964;14.502;2023-06-22T09:45:02;97208.16;;;28.25;61.73
78890;BME280;68279;48.964;14.502;2023-06-22T09:47:29;97207.31;;;28.00;62.56
78890;BME280;68279;48.964;14.502;2023-06-22T09:49:54;97197.97;;;28.40;59.75
78890;BME280;68279;48.964;14.502;2023-06-22T09:52:21;97204.63;;;28.78;65.95
78890;BME280;68279;48.964;14.502;2023-06-22T09:54:49;97185.88;;;29.71;57.47
78890;BME280;68279;48.964;14.502;2023-06-22T09:57:14;97193.41;;;29.64;59.25
78890;BME280;68279;48.964;14.502;2023-06-22T09:59:41;97185.25;;;29.28;58.68
78890;BME280;68279;48.964;14.502;2023-06-22T10:02:06;97186.56;;;28.91;63.51
78890;BME280;68279;48.964;14.502;2023-06-22T10:04:33;97183.66;;;29.34;62.85
78890;BME280;68279;48.964;14.502;2023-06-22T10:06:59;97186.72;;;29.57;63.77
78890;BME280;68279;48.964;14.502;2023-06-22T10:09:24;97185.59;;;29.37;60.59
78890;BME280;68279;48.964;14.502;2023-06-22T10:11:50;97178.47;;;30.20;56.25
78890;BME280;68279;48.964;14.502;2023-06-22T10:14:15;97177.78;;;30.09;56.02
78890;BME280;68279;48.964;14.502;2023-06-22T10:16:42;97170.53;;;29.67;58.14
78890;BME280;68279;48.964;14.502;2023-06-22T10:19:08;97159.72;;;29.94;59.00
78890;BME280;68279;48.964;14.502;2023-06-22T10:21:33;97168.16;;;30.28;56.72
78890;BME280;68279;48.964;14.502;2023-06-22T10:23:59;97167.41;;;30.76;54.33
78890;BME280;68279;48.964;14.502;2023-06-22T10:26:36;97162.84;;;30.96;53.72
78890;BME280;68279;48.964;14.502;2023-06-22T10:29:02;97170.84;;;30.83;58.01
78890;BME280;68279;48.964;14.502;2023-06-22T10:31:28;97162.88;;;30.48;52.57
78890;BME280;68279;48.964;14.502;2023-06-22T10:33:55;97161.56;;;30.18;54.79
78890;BME280;68279;48.964;14.502;2023-06-22T10:36:21;97165.50;;;30.62;51.79
78890;BME280;68279;48.964;14.502;2023-06-22T10:38:47;97163.06;;;30.75;47.94
78890;BME280;68279;48.964;14.502;2023-06-22T10:41:13;97158.63;;;30.84;52.57
78890;BME280;68279;48.964;14.502;2023-06-22T10:43:44;97155.81;;;30.88;50.82
78890;BME280;68279;48.964;14.502;2023-06-22T10:46:10;97156.44;;;30.65;49.56
78890;BME280;68279;48.964;14.502;2023-06-22T10:48:35;97161.03;;;30.79;49.17
78890;BME280;68279;48.964;14.502;2023-06-22T10:51:01;97167.72;;;30.81;56.51
78890;BME280;68279;48.964;14.502;2023-06-22T10:53:26;97166.47;;;30.44;56.20
78890;BME280;68279;48.964;14.502;2023-06-22T10:55:52;97165.84;;;30.71;54.10
78890;BME280;68279;48.964;14.502;2023-06-22T10:58:19;97157.88;;;31.14;50.41
78890;BME280;68279;48.964;14.502;2023-06-22T11:00:45;97156.88;;;31.35;49.58
78890;BME280;68279;48.964;14.502;2023-06-22T11:03:10;97147.25;;;30.34;57.17
78890;BME280;68279;48.964;14.502;2023-06-22T11:05:37;97148.16;;;31.02;52.01
78890;BME280;68279;48.964;14.502;2023-06-22T11:08:03;97147.97;;;31.17;51.21
78890;BME280;68279;48.964;14.502;2023-06-22T11:10:28;97134.31;;;31.40;52.96
78890;BME280;68279;48.964;14.502;2023-06-22T11:12:54;97133.59;;;30.98;52.86
78890;BME280;68279;48.964;14.502;2023-06-22T11:15:20;97126.34;;;30.74;52.01
78890;BME280;68279;48.964;14.502;2023-06-22T11:17:46;97123.53;;;31.15;52.90
78890;BME280;68279;48.964;14.502;2023-06-22T11:20:12;97123.94;;;30.80;56.39
78890;BME280;68279;48.964;14.502;2023-06-22T11:22:42;97123.03;;;31.27;54.03
78890;BME280;68279;48.964;14.502;2023-06-22T11:25:08;97119.38;;;31.92;46.02
78890;BME280;68279;48.964;14.502;2023-06-22T11:27:34;97120.94;;;31.35;53.68
78890;BME280;68279;48.964;14.502;2023-06-22T11:30:00;97110.38;;;31.26;52.12
78890;BME280;68279;48.964;14.502;2023-06-22T11:32:26;97100.34;;;31.40;48.74
78890;BME280;68279;48.964;14.502;2023-06-22T11:34:52;97106.34;;;30.63;50.63
78890;BME280;68279;48.964;14.502;2023-06-22T11:37:18;97101.22;;;30.65;51.07
78890;BME280;68279;48.964;14.502;2023-06-22T11:39:44;97093.97;;;31.12;52.68
78890;BME280;68279;48.964;14.502;2023-06-22T11:42:09;97081.03;;;31.36;50.66
78890;BME280;68279;48.964;14.502;2023-06-22T11:44:37;97084.81;;;31.19;51.20
78890;BME280;68279;48.964;14.502;2023-06-22T11:47:03;97081.69;;;31.47;53.05
78890;BME280;68279;48.964;14.502;2023-06-22T11:49:32;97085.94;;;31.82;52.54
78890;BME280;68279;48.964;14.502;2023-06-22T11:51:58;97085.25;;;31.14;50.33
78890;BME280;68279;48.964;14.502;2023-06-22T11:54:23;97079.75;;;30.80;52.76
78890;BME280;68279;48.964;14.502;2023-06-22T11:56:49;97085.53;;;30.92;53.32
78890;BME280;68279;48.964;14.502;2023-06-22T11:59:14;97079.03;;;31.94;50.81
78890;BME280;68279;48.964;14.502;2023-06-22T12:01:40;97077.66;;;32.73;51.70
78890;BME280;68279;48.964;14.502;2023-06-22T12:04:05;97079.50;;;32.12;48.97
78890;BME280;68279;48.964;14.502;2023-06-22T12:06:37;97084.84;;;32.23;50.13
78890;BME280;68279;48.964;14.502;2023-06-22T12:09:04;97071.28;;;32.09;51.07
78890;BME280;68279;48.964;14.502;2023-06-22T12:11:30;97072.63;;;31.97;51.04
78890;BME280;68279;48.964;14.502;2023-06-22T12:13:56;97071.41;;;32.25;50.29
78890;BME280;68279;48.964;14.502;2023-06-22T12:16:21;97077.75;;;31.45;53.12
78890;BME280;68279;48.964;14.502;2023-06-22T12:18:47;97066.75;;;32.19;49.84
78890;BME280;68279;48.964;14.502;2023-06-22T12:21:13;97069.25;;;32.56;49.34
78890;BME280;68279;48.964;14.502;2023-06-22T12:23:39;97061.25;;;32.15;50.36
78890;BME280;68279;48.964;14.502;2023-06-22T12:26:04;97066.31;;;31.70;49.64
78890;BME280;68279;48.964;14.502;2023-06-22T12:28:30;97070.50;;;32.08;47.68
78890;BME280;68279;48.964;14.502;2023-06-22T12:30:56;97066.91;;;31.57;47.50
78890;BME280;68279;48.964;14.502;2023-06-22T12:33:21;97056.50;;;32.16;49.51
78890;BME280;68279;48.964;14.502;2023-06-22T12:35:47;97059.59;;;32.21;48.83
78890;BME280;68279;48.964;14.502;2023-06-22T12:38:14;97050.06;;;32.89;49.61
78890;BME280;68279;48.964;14.502;2023-06-22T12:40:40;97049.09;;;32.76;49.02
78890;BME280;68279;48.964;14.502;2023-06-22T12:43:05;97045.69;;;32.48;47.21
78890;BME280;68279;48.964;14.502;2023-06-22T12:45:34;97032.13;;;33.30;44.98
78890;BME280;68279;48.964;14.502;2023-06-22T12:48:00;97035.69;;;33.14;45.66
78890;BME280;68279;48.964;14.502;2023-06-22T12:50:26;97039.88;;;33.02;47.52